Time;durP1;ratioP1;P1;durP2;ratioP2;P2;SDS_P1;SDS_P2;PMS_P1;PMS_P2;Temp;Humidity;BMP_temperature;BMP_pressure;BME280_temperature;BME280_humidity;BME280_pressure;Samples;Min_cycle;Max_cycle;Signal;HPM_P1;HPM_P2
2021/04/05 00:03:53;;;;;;;27.77;11.63;;;;;;;-0.30;68.22;98731.11;4347432;81;21172;-90
2021/04/05 00:09:54;;;;;;;20.60;10.67;;;;;;;-0.26;68.15;98712.70;4341146;81;21639;-91
2021/04/05 00:15:56;;;;;;;21.50;10.47;;;;;;;-0.22;68.09;98708.27;4339235;81;21196;-91
2021/04/05 00:21:57;;;;;;;22.60;9.53;;;;;;;-0.20;68.14;98691.27;4343083;81;21162;-91
2021/04/05 00:28:01;;;;;;;17.50;9.23;;;;;;;-0.19;68.49;98690.16;4324367;81;21183;-91
2021/04/05 00:34:03;;;;;;;16.20;8.70;;;;;;;-0.17;68.31;98685.80;4334731;81;21188;-90
2021/04/05 00:40:09;;;;;;;22.07;9.87;;;;;;;-0.13;68.33;98675.48;4348608;81;21129;-86
2021/04/05 00:46:12;;;;;;;;;;;;;;;-0.08;68.41;98670.50;4406560;80;21174;-85
2021/04/05 00:52:13;;;;;;;15.00;8.30;;;;;;;0.02;68.35;98663.45;4345601;81;20182;-85
2021/04/05 00:58:17;;;;;;;15.87;7.90;;;;;;;0.04;68.10;98645.11;4351855;80;21183;-84
2021/04/05 01:04:18;;;;;;;14.67;7.57;;;;;;;0.07;68.23;98645.02;4346131;80;21141;-84
2021/04/05 01:10:21;;;;;;;17.90;8.23;;;;;;;0.08;68.22;98631.82;4361962;81;21150;-83
2021/04/05 01:16:30;;;;;;;16.50;7.50;;;;;;;0.03;68.25;98621.43;4335489;81;21189;-86
2021/04/05 01:22:31;;;;;;;16.50;7.50;;;;;;;0.01;68.58;98606.72;4348532;81;21315;-85
2021/04/05 01:28:33;;;;;;;18.57;8.47;;;;;;;-0.03;68.49;98603.05;4334068;81;21123;-82
2021/04/05 01:41:30;;;;;;;16.43;8.80;;;;;;;-0.15;68.46;98584.06;4318225;82;21150;-83
2021/04/05 01:47:33;;;;;;;21.03;8.70;;;;;;;-0.18;68.54;98574.73;4301620;82;21177;-83
2021/04/05 01:53:35;;;;;;;14.87;8.43;;;;;;;-0.24;68.61;98571.16;4251496;82;21332;-84
2021/04/05 01:59:38;;;;;;;14.93;7.13;;;;;;;-0.31;68.88;98546.06;4269486;82;21418;-91
2021/04/05 02:05:57;;;;;;;13.00;7.03;;;;;;;-0.29;68.80;98534.99;4274981;82;21144;-91
2021/04/05 02:11:58;;;;;;;12.20;6.07;;;;;;;-0.26;68.74;98530.33;4266738;82;21218;-91
2021/04/05 02:18:01;;;;;;;16.77;7.60;;;;;;;-0.25;68.69;98515.79;4278744;82;21165;-90
2021/04/05 02:24:05;;;;;;;15.07;7.00;;;;;;;-0.31;68.83;98507.06;4273254;82;21140;-85
2021/04/05 02:30:08;;;;;;;10.60;6.07;;;;;;;-0.30;68.63;98499.80;4255423;82;21608;-84
2021/04/05 02:36:13;;;;;;;11.90;6.20;;;;;;;-0.26;68.82;98485.95;4253522;82;21205;-83
2021/04/05 02:42:18;;;;;;;13.63;6.87;;;;;;;-0.27;68.60;98477.08;4228012;83;21612;-83
2021/04/05 02:48:22;;;;;;;11.00;5.87;;;;;;;-0.29;68.59;98476.63;4397544;80;21115;-83
2021/04/05 02:54:24;;;;;;;15.07;7.27;;;;;;;-0.32;68.49;98467.04;4382892;80;21151;-84
2021/04/05 03:00:27;;;;;;;14.33;6.83;;;;;;;-0.35;68.42;98460.95;4396414;80;21155;-83
2021/04/05 03:06:29;;;;;;;12.83;5.63;;;;;;;-0.37;68.45;98447.83;4385041;80;21714;-91
2021/04/05 03:12:34;;;;;;;15.17;7.03;;;;;;;-0.37;68.34;98432.23;4371608;79;21159;-83
2021/04/05 03:25:35;;;;;;;12.13;6.23;;;;;;;-0.49;68.71;98414.06;4391121;80;21604;-84
2021/04/05 03:31:39;;;;;;;9.90;5.17;;;;;;;-0.53;68.90;98399.66;4399558;80;21171;-84
2021/04/05 03:37:43;;;;;;;11.87;5.40;;;;;;;-0.54;68.84;98379.81;4413613;78;21180;-91
2021/04/05 03:43:59;;;;;;;13.23;5.77;;;;;;;-0.56;68.71;98369.92;4306315;81;21205;-91
2021/04/05 03:50:27;;;;;;;10.93;5.73;;;;;;;-0.51;68.91;98360.35;4248447;79;132251;-90
2021/04/05 03:56:45;;;;;;;12.03;6.10;;;;;;;-0.53;68.78;98355.84;4161815;84;21212;-92
2021/04/05 04:02:52;;;;;;;11.83;6.13;;;;;;;-0.52;68.78;98337.27;4161870;84;21656;-90
2021/04/05 04:08:57;;;;;;;12.87;6.10;;;;;;;-0.60;68.82;98329.46;4161695;84;21180;-91
2021/04/05 04:15:00;;;;;;;12.43;6.43;;;;;;;-0.63;69.03;98311.28;4155767;81;36267;-89
2021/04/05 04:21:05;;;;;;;9.87;6.03;;;;;;;-0.68;68.93;98311.44;4070863;86;21217;-91
2021/04/05 04:27:07;;;;;;;12.03;5.80;;;;;;;-0.69;69.31;98295.06;4072808;86;21698;-92
2021/04/05 04:33:11;;;;;;;15.63;6.17;;;;;;;-0.61;69.28;98282.16;4066691;86;21196;-83
2021/04/05 04:39:15;;;;;;;10.43;5.33;;;;;;;-0.34;69.19;98273.73;4071206;86;21629;-84
2021/04/05 04:45:18;;;;;;;10.10;5.30;;;;;;;-0.03;69.10;98251.92;4075078;86;21197;-82
2021/04/05 04:51:20;;;;;;;10.03;5.37;;;;;;;0.37;68.77;98235.64;4069058;87;21213;-84
2021/04/05 04:57:22;;;;;;;9.33;5.80;;;;;;;0.58;68.59;98226.25;4068336;87;21335;-86
2021/04/05 05:03:25;;;;;;;10.57;5.50;;;;;;;0.67;68.38;98216.19;4068049;86;21655;-86
2021/04/05 05:09:27;;;;;;;9.87;5.40;;;;;;;0.93;68.38;98206.77;4067938;86;21681;-83
2021/04/05 05:15:30;;;;;;;9.33;5.10;;;;;;;1.23;68.12;98192.61;4067614;87;21192;-84
2021/04/05 05:21:47;;;;;;;9.23;5.40;;;;;;;1.45;68.02;98180.87;4068441;87;21658;-84
2021/04/05 05:27:57;;;;;;;8.17;4.77;;;;;;;1.70;67.49;98178.98;4069076;87;21173;-84
2021/04/05 05:34:00;;;;;;;8.38;4.55;;;;;;;1.98;67.05;98148.84;4082151;86;21201;-83
2021/04/05 05:40:04;;;;;;;7.08;4.25;;;;;;;2.29;66.75;98132.80;4081196;86;21315;-84
2021/04/05 05:46:38;;;;;;;10.85;3.83;;;;;;;2.57;66.46;98131.50;4066197;86;21632;-84
2021/04/05 05:53:16;;;;;;;9.15;4.22;;;;;;;2.99;66.26;98118.56;4587541;76;22943;-84
2021/04/05 05:59:41;;;;;;;9.73;3.90;;;;;;;3.37;65.81;98109.89;4485159;79;21128;-85
2021/04/05 06:05:51;;;;;;;14.30;6.05;;;;;;;3.76;65.47;98097.31;4489286;79;21152;-83
2021/04/05 06:12:04;;;;;;;9.28;4.40;;;;;;;4.16;64.23;98097.83;4497532;79;21125;-84
2021/04/05 06:18:40;;;;;;;7.25;3.87;;;;;;;4.71;63.97;98096.84;4490197;79;21140;-85
2021/04/05 06:25:08;;;;;;;9.50;4.22;;;;;;;5.29;63.30;98088.62;4503398;77;21604;-85
2021/04/05 06:31:34;;;;;;;9.28;3.95;;;;;;;5.99;61.98;98062.60;4479856;78;21152;-92
2021/04/05 06:37:47;;;;;;;7.47;3.75;;;;;;;6.48;59.71;98047.52;4491720;78;21573;-93
2021/04/05 06:44:31;;;;;;;5.62;2.75;;;;;;;6.79;57.84;98032.92;4485345;78;21137;-91
2021/04/05 06:51:05;;;;;;;10.15;3.47;;;;;;;7.11;57.86;98029.16;4492055;78;21321;-93
2021/04/05 06:57:17;;;;;;;7.42;2.90;;;;;;;7.37;58.03;98022.98;4488298;78;21685;-91
2021/04/05 07:03:40;;;;;;;7.62;3.35;;;;;;;7.68;56.01;98008.81;4483959;78;21148;-92
2021/04/05 07:10:06;;;;;;;5.53;2.98;;;;;;;8.11;54.58;98003.61;4489232;78;21590;-92
2021/04/05 07:16:26;;;;;;;6.08;3.02;;;;;;;8.44;53.24;98000.67;4483539;78;21689;-92
2021/04/05 07:23:09;;;;;;;6.60;3.02;;;;;;;8.85;51.75;98001.93;4482574;78;21152;-93
2021/04/05 07:29:27;;;;;;;7.97;3.40;;;;;;;9.17;47.88;97993.22;4492426;78;21137;-92
2021/04/05 07:35:55;;;;;;;6.95;3.12;;;;;;;9.51;49.94;97975.25;4463861;78;21156;-92
2021/04/05 07:42:17;;;;;;;9.05;3.55;;;;;;;9.85;47.66;97981.83;4501389;78;21658;-91
2021/04/05 07:48:32;;;;;;;5.42;3.17;;;;;;;10.11;43.49;97964.22;4478044;78;21184;-92
2021/04/05 07:54:38;;;;;;;8.88;3.25;;;;;;;10.27;45.78;97958.51;4487979;78;21597;-92
2021/04/05 08:01:12;;;;;;;7.33;3.73;;;;;;;10.74;44.61;97955.72;4493253;78;21134;-92
2021/04/05 08:07:19;;;;;;;7.28;3.60;;;;;;;11.05;44.49;97936.92;4492763;78;21125;-93
2021/04/05 08:13:34;;;;;;;8.48;3.10;;;;;;;11.60;43.02;97925.28;4515592;77;21580;-92
2021/04/05 08:19:47;;;;;;;7.50;3.92;;;;;;;11.95;40.29;97901.61;4475280;78;21147;-92
2021/04/05 08:32:20;;;;;;;6.55;3.85;;;;;;;12.61;41.20;97881.33;4588699;75;22918;-92
2021/04/05 08:38:39;;;;;;;7.58;3.37;;;;;;;13.17;43.65;97873.59;4493240;78;21290;-92
2021/04/05 08:45:09;;;;;;;8.95;3.85;;;;;;;13.50;43.50;97865.74;4489680;78;21331;-91
2021/04/05 08:51:25;;;;;;;6.30;3.27;;;;;;;14.30;42.80;97844.70;4491362;78;21140;-92
2021/04/05 09:03:51;;;;;;;7.62;3.50;;;;;;;14.41;39.35;97819.08;4535954;77;22694;-89
2021/04/05 09:09:56;;;;;;;7.28;4.00;;;;;;;14.87;38.09;97816.03;4480925;78;21180;-90
2021/04/05 09:16:18;;;;;;;8.95;3.55;;;;;;;15.57;35.84;97792.73;4481877;78;21138;-86
2021/04/05 09:22:43;;;;;;;6.97;3.83;;;;;;;16.12;38.04;97786.80;4482891;78;21588;-88
2021/04/05 09:28:59;;;;;;;6.92;3.60;;;;;;;16.84;38.40;97782.17;4487548;78;21148;-86
2021/04/05 09:35:40;;;;;;;8.10;3.27;;;;;;;17.15;38.00;97768.48;4472844;78;21598;-86
2021/04/05 09:42:18;;;;;;;8.73;3.37;;;;;;;16.82;38.48;97753.41;4329433;78;28893;-87
2021/04/05 09:48:44;;;;;;;6.05;3.25;;;;;;;18.03;38.23;97737.01;4215224;84;21167;-85
2021/04/05 09:55:05;;;;;;;6.55;3.15;;;;;;;18.52;36.72;97731.54;4208739;82;21324;-85
2021/04/05 10:01:13;;;;;;;5.25;2.87;;;;;;;18.72;35.94;97723.58;4227138;83;21195;-84
2021/04/05 10:07:17;;;;;;;6.42;2.92;;;;;;;18.70;34.23;97707.41;4239952;81;33733;-85
2021/04/05 10:13:23;;;;;;;5.33;3.12;;;;;;;19.06;34.38;97684.48;4298851;82;21166;-86
2021/04/05 10:19:40;;;;;;;3.80;2.50;;;;;;;19.49;34.00;97678.64;4310508;81;21190;-85
2021/04/05 10:25:42;;;;;;;7.70;3.40;;;;;;;20.00;33.41;97663.36;4307976;82;21155;-84
2021/04/05 10:31:45;;;;;;;6.58;2.70;;;;;;;20.64;33.68;97650.69;4298689;81;21165;-85
2021/04/05 10:37:46;;;;;;;4.95;2.77;;;;;;;20.65;30.00;97646.69;4327109;82;84661;-84
2021/04/05 10:44:08;;;;;;;5.80;2.72;;;;;;;20.32;28.92;97618.17;4325948;82;21200;-84
2021/04/05 10:50:18;;;;;;;6.87;3.10;;;;;;;20.35;30.24;97617.22;4316728;82;21229;-86
2021/04/05 10:56:24;;;;;;;3.90;2.37;;;;;;;20.67;28.87;97597.55;4326219;81;35150;-84
2021/04/05 11:02:39;;;;;;;5.60;2.95;;;;;;;21.06;28.96;97588.75;4392362;80;21153;-85
2021/04/05 11:08:43;;;;;;;4.47;2.60;;;;;;;21.62;25.27;97569.59;4377311;81;21158;-84
2021/04/05 11:14:49;;;;;;;4.53;2.45;;;;;;;21.36;26.77;97553.35;4382412;81;21183;-89
2021/04/05 11:20:53;;;;;;;6.57;2.70;;;;;;;20.30;27.64;97553.20;4392420;80;21339;-85
2021/04/05 11:26:57;;;;;;;3.98;2.42;;;;;;;19.60;27.46;97558.79;4388637;80;21314;-85
2021/04/05 11:33:00;;;;;;;4.80;2.40;;;;;;;18.91;27.56;97546.31;4392265;80;21602;-86
2021/04/05 11:39:07;;;;;;;3.98;2.02;;;;;;;19.32;27.01;97534.55;4394320;79;21205;-84
2021/04/05 11:45:36;;;;;;;5.22;2.00;;;;;;;19.02;27.26;97527.80;4391621;79;21292;-85
2021/04/05 11:51:50;;;;;;;6.25;2.17;;;;;;;19.58;25.29;97511.30;4374932;81;21204;-84
2021/04/05 11:58:28;;;;;;;4.60;2.67;;;;;;;18.50;26.62;97499.84;4374405;81;21626;-85
2021/04/05 12:04:41;;;;;;;4.03;2.15;;;;;;;17.63;26.59;97471.13;4386963;79;21118;-88
2021/04/05 12:10:47;;;;;;;4.33;2.45;;;;;;;16.56;27.63;97463.24;4387213;80;21170;-87
2021/04/05 12:16:52;;;;;;;4.30;2.30;;;;;;;16.28;28.00;97467.00;4381096;81;21146;-87
2021/04/05 12:22:57;;;;;;;4.85;2.42;;;;;;;15.90;28.51;97456.11;4370589;81;21170;-89
2021/04/05 12:29:08;;;;;;;4.50;2.35;;;;;;;15.90;29.45;97451.97;4372331;81;21154;-92
2021/04/05 12:35:11;;;;;;;6.40;2.08;;;;;;;15.84;29.55;97461.26;4376676;80;21117;-94
2021/04/05 12:41:13;;;;;;;4.42;2.47;;;;;;;15.90;30.05;97428.52;4376890;81;21197;-90
2021/04/05 12:47:17;;;;;;;3.95;1.90;;;;;;;16.80;29.17;97422.88;4388239;81;21161;-87
2021/04/05 12:53:42;;;;;;;7.08;2.10;;;;;;;17.10;29.04;97401.35;4377824;81;21185;-92
2021/04/05 12:59:44;;;;;;;5.85;2.22;;;;;;;17.33;28.59;97396.65;4378687;81;21145;-88
2021/04/05 13:06:04;;;;;;;5.95;2.27;;;;;;;17.43;28.83;97381.59;4395583;81;21173;-89
2021/04/05 13:12:20;;;;;;;4.62;2.27;;;;;;;17.44;27.56;97356.09;4394592;79;21181;-89
2021/04/05 13:18:36;;;;;;;;;;;;;;;;;;;;;
2021/04/05 13:24:54;;;;;;;4.90;2.17;;;;;;;16.56;27.68;97363.20;4485576;77;22929;-88
2021/04/05 13:31:07;;;;;;;7.53;3.30;;;;;;;16.18;27.86;97364.02;4359735;80;21180;-86
2021/04/05 13:37:12;;;;;;;8.30;2.65;;;;;;;15.92;29.03;97352.95;4302702;81;21165;-84
2021/04/05 13:43:19;;;;;;;9.23;2.85;;;;;;;15.55;30.00;97358.78;4360492;80;21622;-86
2021/04/05 13:49:34;;;;;;;9.08;2.45;;;;;;;15.46;29.20;97353.20;4260286;81;21163;-86
2021/04/05 13:55:40;;;;;;;5.20;2.60;;;;;;;14.96;30.38;97343.63;4347233;80;21347;-86
2021/04/05 14:01:45;;;;;;;3.67;2.27;;;;;;;14.55;30.43;97346.50;4291916;81;21902;-85
2021/04/05 14:07:48;;;;;;;5.00;2.80;;;;;;;14.36;31.88;97348.85;4342319;81;21802;-85
2021/04/05 14:14:03;;;;;;;4.50;2.72;;;;;;;14.04;31.44;97354.50;4447775;78;21156;-83
2021/04/05 14:20:19;;;;;;;6.22;2.80;;;;;;;13.88;31.52;97333.93;4444486;78;21177;-87
2021/04/05 14:26:22;;;;;;;6.20;2.45;;;;;;;13.64;31.26;97340.28;4444748;80;21594;-87
2021/04/05 14:32:40;;;;;;;4.60;2.60;;;;;;;13.46;32.36;97335.88;4452686;78;21669;-86
2021/04/05 14:38:43;;;;;;;5.22;2.50;;;;;;;13.33;33.16;97319.92;4475392;78;21156;-87
2021/04/05 14:44:58;;;;;;;4.70;2.40;;;;;;;13.14;32.67;97301.58;4460447;78;21126;-88
2021/04/05 14:51:02;;;;;;;6.40;3.70;;;;;;;13.04;33.80;97287.53;4449478;78;21138;-92
2021/04/05 14:57:07;;;;;;;6.12;2.90;;;;;;;12.85;33.79;97282.88;4454415;78;21192;-89
2021/04/05 15:03:12;;;;;;;7.67;2.67;;;;;;;12.75;33.18;97268.05;4448688;78;21230;-95
2021/04/05 15:09:26;;;;;;;5.92;2.67;;;;;;;12.56;34.14;97257.31;4509738;78;21359;-86
2021/04/05 15:15:38;;;;;;;4.33;2.33;;;;;;;12.45;34.95;97243.86;4463204;78;21177;-94
2021/04/05 15:21:41;;;;;;;7.78;2.92;;;;;;;12.39;36.40;97244.80;4410614;78;21169;-92
2021/04/05 15:27:45;;;;;;;6.37;2.60;;;;;;;12.29;35.64;97226.01;4444539;80;21444;-91
2021/04/05 15:33:49;;;;;;;6.78;3.20;;;;;;;12.21;35.65;97221.13;4440272;80;21638;-87
2021/04/05 15:39:52;;;;;;;5.10;2.87;;;;;;;12.15;35.79;97214.62;4359874;78;28603;-88
2021/04/05 15:46:22;;;;;;;5.83;2.35;;;;;;;12.12;36.29;97195.66;4253914;83;21295;-94
2021/04/05 15:52:28;;;;;;;5.30;2.80;;;;;;;12.06;35.94;97182.88;4228186;83;21153;-90
2021/04/05 15:58:34;;;;;;;9.73;3.17;;;;;;;12.05;36.52;97169.00;4222861;83;21602;-89
2021/04/05 16:04:59;;;;;;;9.28;3.30;;;;;;;12.00;37.09;97161.28;4234990;83;21322;-87
2021/04/05 16:11:12;;;;;;;8.10;2.87;;;;;;;12.01;36.42;97136.79;4200008;83;21375;-88
2021/04/05 16:17:24;;;;;;;4.65;2.77;;;;;;;12.02;36.38;97132.84;4232940;78;32352;-87
2021/04/05 16:23:36;;;;;;;5.28;2.58;;;;;;;11.99;36.60;97117.25;4224944;84;21189;-87
2021/04/05 16:29:44;;;;;;;6.33;3.17;;;;;;;11.95;36.58;97107.73;4224527;83;21213;-88
2021/04/05 16:35:49;;;;;;;6.28;2.80;;;;;;;11.99;36.37;97099.42;4224947;83;21189;-88
2021/04/05 16:41:58;;;;;;;6.40;3.15;;;;;;;11.96;37.06;97100.28;4204103;83;21161;-88
2021/04/05 16:48:04;;;;;;;6.80;2.80;;;;;;;11.88;36.39;97087.94;4224891;83;21459;-88
2021/04/05 16:54:09;;;;;;;7.33;2.77;;;;;;;11.86;36.77;97084.84;4228680;83;21323;-88
2021/04/05 17:00:15;;;;;;;9.73;2.55;;;;;;;11.74;37.30;97083.58;4225395;83;21348;-89
2021/04/05 17:06:23;;;;;;;10.25;3.58;;;;;;;11.58;37.76;97084.13;4225399;83;21982;-88
2021/04/05 17:12:38;;;;;;;8.63;3.77;;;;;;;11.51;37.88;97096.02;4223769;84;21192;-88
2021/04/05 17:18:46;;;;;;;6.70;2.95;;;;;;;11.44;37.53;97115.36;4221421;83;21419;-88
2021/04/05 17:24:49;;;;;;;11.12;3.60;;;;;;;11.33;38.31;97118.15;4193843;83;21185;-89
2021/04/05 17:30:58;;;;;;;5.72;3.08;;;;;;;11.32;37.97;97120.73;4187274;84;21165;-88
2021/04/05 17:37:04;;;;;;;7.15;2.55;;;;;;;11.28;38.15;97126.27;4188462;83;21307;-89
2021/04/05 17:43:12;;;;;;;7.22;3.62;;;;;;;11.29;38.83;97136.64;4168869;84;21173;-88
2021/04/05 17:49:36;;;;;;;5.83;2.27;;;;;;;11.27;38.60;97149.39;4186651;83;21202;-89
2021/04/05 17:56:11;;;;;;;3.55;2.12;;;;;;;11.32;39.07;97159.08;4190258;85;21169;-88
2021/04/05 18:02:37;;;;;;;5.72;2.60;;;;;;;11.32;39.48;97174.14;4188174;83;21194;-88
2021/04/05 18:09:21;;;;;;;9.20;2.77;;;;;;;11.32;40.17;97168.66;4189918;83;21169;-89
2021/04/05 18:15:37;;;;;;;5.62;2.45;;;;;;;11.41;39.58;97198.41;4188364;84;21367;-88
2021/04/05 18:22:14;;;;;;;7.37;2.95;;;;;;;11.25;41.54;97219.47;4579260;75;22373;-87
2021/04/05 18:28:27;;;;;;;8.43;3.08;;;;;;;10.90;42.02;97231.86;4476432;78;21136;-89
2021/04/05 18:34:51;;;;;;;6.17;2.70;;;;;;;10.60;45.23;97252.55;4479556;78;21160;-87
2021/04/05 18:40:53;;;;;;;4.67;2.87;;;;;;;10.20;46.80;97265.86;4494084;78;21172;-87
2021/04/05 18:47:03;;;;;;;5.53;2.75;;;;;;;9.87;49.01;97274.89;4476608;78;21133;-87
2021/04/05 18:59:58;;;;;;;4.20;2.33;;;;;;;9.43;49.11;97312.72;4200807;83;21202;-90
2021/04/05 19:06:30;;;;;;;11.90;4.75;;;;;;;9.18;52.30;97334.05;4207389;84;21173;-90
2021/04/05 19:12:56;;;;;;;9.13;5.70;;;;;;;8.73;54.33;97367.39;4207187;84;21766;-87
2021/04/05 19:19:26;;;;;;;17.52;8.10;;;;;;;7.99;56.36;97394.28;4217363;84;21195;-88
2021/04/05 19:25:45;;;;;;;15.18;7.45;;;;;;;7.62;56.90;97406.29;4203611;83;22382;-87
2021/04/05 19:32:04;;;;;;;14.68;6.12;;;;;;;7.45;57.55;97418.78;4216692;84;21178;-88
2021/04/05 19:38:30;;;;;;;14.53;7.45;;;;;;;7.42;58.47;97433.16;4218154;84;21230;-89
2021/04/05 19:44:52;;;;;;;11.65;5.25;;;;;;;7.30;59.54;97443.09;4209696;83;21205;-88
2021/04/05 19:51:28;;;;;;;6.15;2.15;;;;;;;7.04;61.81;97486.25;4206046;83;21208;-86
2021/04/05 19:58:08;;;;;;;6.97;3.00;;;;;;;6.17;62.27;97520.20;4218331;83;21694;-88
2021/04/05 20:04:45;;;;;;;4.55;1.90;;;;;;;5.48;62.13;97524.76;4231026;83;21199;-87
2021/04/05 20:11:36;;;;;;;2.83;1.60;;;;;;;4.94;62.84;97553.16;4210855;84;21134;-88
2021/04/05 20:18:00;;;;;;;3.58;2.00;;;;;;;4.59;63.23;97592.07;4232002;83;21194;-87
2021/04/05 20:24:09;;;;;;;6.28;3.20;;;;;;;4.33;63.54;97612.45;4226476;84;21210;-88
2021/04/05 20:30:42;;;;;;;6.53;3.47;;;;;;;4.28;64.10;97627.67;4230268;83;21201;-88
2021/04/05 20:37:01;;;;;;;6.20;4.03;;;;;;;4.14;64.19;97635.59;4238207;84;21652;-87
2021/04/05 20:43:29;;;;;;;4.85;3.62;;;;;;;3.81;64.89;97659.27;4224967;84;21174;-87
2021/04/05 20:50:04;;;;;;;8.70;4.72;;;;;;;3.66;65.05;97679.14;4230818;84;21768;-87
2021/04/05 20:56:14;;;;;;;9.13;5.33;;;;;;;3.61;65.59;97692.97;4228401;84;21309;-87
2021/04/05 21:02:24;;;;;;;9.15;5.70;;;;;;;3.46;65.41;97710.66;4230300;83;21172;-93
2021/04/05 21:08:31;;;;;;;8.00;5.28;;;;;;;3.28;65.40;97713.59;4224577;84;21182;-92
2021/04/05 21:14:53;;;;;;;11.20;6.17;;;;;;;3.12;66.18;97729.91;4231887;82;21741;-91
2021/04/05 21:21:00;;;;;;;8.20;5.22;;;;;;;3.03;66.49;97743.66;4223495;84;21176;-91
2021/04/05 21:27:15;;;;;;;9.35;5.33;;;;;;;3.02;66.65;97759.64;4225603;84;21189;-92
2021/04/05 21:33:28;;;;;;;11.70;6.62;;;;;;;2.94;67.16;97786.30;4193829;84;21137;-93
2021/04/05 21:39:33;;;;;;;19.80;8.13;;;;;;;2.87;67.08;97796.19;4197161;83;21183;-93
2021/04/05 21:45:46;;;;;;;18.20;6.87;;;;;;;2.66;67.34;97809.24;4169141;83;21226;-92
2021/04/05 21:51:56;;;;;;;12.30;6.33;;;;;;;2.60;67.52;97822.22;4188944;84;21147;-92
2021/04/05 21:58:01;;;;;;;9.73;4.72;;;;;;;2.76;67.68;97829.74;4195625;83;21950;-91
2021/04/05 22:04:08;;;;;;;5.78;2.95;;;;;;;2.79;67.81;97836.35;4163887;84;22337;-91
2021/04/05 22:10:25;;;;;;;3.98;1.85;;;;;;;2.67;67.96;97849.42;4200251;83;21186;-92
2021/04/05 22:16:40;;;;;;;3.40;1.40;;;;;;;2.24;68.78;97848.74;4580683;76;22559;-91
2021/04/05 22:22:57;;;;;;;4.28;2.10;;;;;;;2.00;68.18;97863.17;4486156;78;21159;-91
2021/04/05 22:29:06;;;;;;;4.60;1.80;;;;;;;2.04;68.57;97860.54;4489867;78;21136;-91
2021/04/05 22:35:09;;;;;;;6.45;2.58;;;;;;;1.98;69.06;97861.38;4486893;78;21187;-90
2021/04/05 22:41:11;;;;;;;7.45;3.02;;;;;;;2.03;69.11;97854.94;4466093;78;21307;-91
2021/04/05 22:47:14;;;;;;;4.08;2.17;;;;;;;2.17;69.19;97843.15;4389718;80;21460;-91
2021/04/05 22:53:23;;;;;;;11.63;5.00;;;;;;;2.19;69.14;97845.73;4390033;80;21169;-90
2021/04/05 22:59:23;;;;;;;7.05;3.50;;;;;;;2.21;68.97;97846.74;4388904;80;21146;-91
2021/04/05 23:05:25;;;;;;;4.25;2.72;;;;;;;2.19;69.24;97850.34;4385191;80;21664;-91
2021/04/05 23:11:40;;;;;;;3.02;1.67;;;;;;;2.05;69.07;97842.65;4328489;80;21184;-90
2021/04/05 23:17:48;;;;;;;2.63;1.33;;;;;;;1.90;69.27;97838.02;4401102;80;21136;-91
2021/04/05 23:23:54;;;;;;;4.60;2.10;;;;;;;1.92;69.36;97816.88;4391807;81;21319;-91
2021/04/05 23:30:00;;;;;;;3.90;2.00;;;;;;;1.92;69.83;97810.14;4385870;80;21160;-90
2021/04/05 23:36:05;;;;;;;6.53;2.75;;;;;;;1.99;69.87;97845.97;4396857;79;21125;-91
2021/04/05 23:42:12;;;;;;;4.15;2.67;;;;;;;1.97;69.46;97883.31;4394486;79;21450;-92
2021/04/05 23:48:14;;;;;;;5.22;3.08;;;;;;;1.97;69.46;97883.31;4397407;79;21147;-92
2021/04/05 23:54:17;;;;;;;6.53;3.33;;;;;;;1.79;69.91;97869.34;4388844;80;21165;-91
